Terminal Aerodrome Forecast
Issued by NWS Duluth, MN

Home | Current Version | Previous Version | Text Only | Print | Product List | Glossary On
Versions: 1 2 3 4 5 6 7 8 9 10 11 12 13 14 15 16 17 18 19 20
224
FTUS43 KDLH 222329
TAFINL
TAF
KINL 222329Z 2300/2324 18008G17KT P6SM FEW080
     FM230100 17008KT P6SM SCT040 BKN080
     FM230600 17006KT P6SM VCSH SCT040 BKN080
     FM231300 20011G21KT P6SM VCSH BKN025
     FM232100 28009KT P6SM BKN050=

USA.gov is the U.S. government's official web portal to all federal, state and local government web resources and services.